sensor_id;sensor_type;location;lat;lon;timestamp;P1;durP1;ratioP1;P2;durP2;ratioP2
60722;SDS011;46574;52.818;6.516;2023-05-10T00:01:46;13.90;;;12.27;;
60722;SDS011;46574;52.818;6.516;2023-05-10T00:04:11;14.85;;;11.75;;
60722;SDS011;46574;52.818;6.516;2023-05-10T00:06:37;12.05;;;10.57;;
60722;SDS011;46574;52.818;6.516;2023-05-10T00:09:03;12.70;;;11.13;;
60722;SDS011;46574;52.818;6.516;2023-05-10T00:11:29;11.27;;;10.10;;
60722;SDS011;46574;52.818;6.516;2023-05-10T00:13:54;13.82;;;11.05;;
60722;SDS011;46574;52.818;6.516;2023-05-10T00:16:20;13.27;;;10.52;;
60722;SDS011;46574;52.818;6.516;2023-05-10T00:18:46;15.60;;;11.38;;
60722;SDS011;46574;52.818;6.516;2023-05-10T00:21:11;12.63;;;10.85;;
60722;SDS011;46574;52.818;6.516;2023-05-10T00:23:37;16.02;;;11.55;;
60722;SDS011;46574;52.818;6.516;2023-05-10T00:26:03;15.82;;;12.43;;
60722;SDS011;46574;52.818;6.516;2023-05-10T00:28:28;11.85;;;10.40;;
60722;SDS011;46574;52.818;6.516;2023-05-10T00:30:54;14.65;;;11.25;;
60722;SDS011;46574;52.818;6.516;2023-05-10T00:33:20;15.35;;;12.05;;
60722;SDS011;46574;52.818;6.516;2023-05-10T00:35:46;15.38;;;12.32;;
60722;SDS011;46574;52.818;6.516;2023-05-10T00:38:11;13.52;;;11.35;;
60722;SDS011;46574;52.818;6.516;2023-05-10T00:40:37;17.67;;;13.05;;
60722;SDS011;46574;52.818;6.516;2023-05-10T00:43:03;17.35;;;12.65;;
60722;SDS011;46574;52.818;6.516;2023-05-10T00:45:30;14.25;;;12.30;;
60722;SDS011;46574;52.818;6.516;2023-05-10T00:47:57;13.23;;;11.32;;
60722;SDS011;46574;52.818;6.516;2023-05-10T00:50:24;15.75;;;12.75;;
60722;SDS011;46574;52.818;6.516;2023-05-10T00:52:50;15.73;;;12.52;;
60722;SDS011;46574;52.818;6.516;2023-05-10T00:55:17;18.75;;;13.02;;
60722;SDS011;46574;52.818;6.516;2023-05-10T00:57:44;13.05;;;10.82;;
60722;SDS011;46574;52.818;6.516;2023-05-10T01:00:10;14.73;;;11.93;;
60722;SDS011;46574;52.818;6.516;2023-05-10T01:02:37;16.05;;;11.82;;
60722;SDS011;46574;52.818;6.516;2023-05-10T01:05:03;15.48;;;11.57;;
60722;SDS011;46574;52.818;6.516;2023-05-10T01:07:30;15.23;;;11.63;;
60722;SDS011;46574;52.818;6.516;2023-05-10T01:09:55;15.25;;;11.27;;
60722;SDS011;46574;52.818;6.516;2023-05-10T01:12:22;15.50;;;10.82;;
60722;SDS011;46574;52.818;6.516;2023-05-10T01:14:48;13.80;;;10.68;;
60722;SDS011;46574;52.818;6.516;2023-05-10T01:17:14;15.05;;;11.10;;
60722;SDS011;46574;52.818;6.516;2023-05-10T01:19:41;11.55;;;9.75;;
60722;SDS011;46574;52.818;6.516;2023-05-10T01:33:35;15.25;;;10.90;;
60722;SDS011;46574;52.818;6.516;2023-05-10T01:47:07;10.23;;;7.82;;
60722;SDS011;46574;52.818;6.516;2023-05-10T01:49:37;12.57;;;9.30;;
60722;SDS011;46574;52.818;6.516;2023-05-10T01:52:09;12.15;;;9.43;;
60722;SDS011;46574;52.818;6.516;2023-05-10T01:54:38;11.40;;;8.60;;
60722;SDS011;46574;52.818;6.516;2023-05-10T01:57:07;13.63;;;10.50;;
60722;SDS011;46574;52.818;6.516;2023-05-10T01:59:37;11.00;;;9.32;;
60722;SDS011;46574;52.818;6.516;2023-05-10T02:02:05;12.90;;;9.68;;
60722;SDS011;46574;52.818;6.516;2023-05-10T02:04:36;11.00;;;9.15;;
60722;SDS011;46574;52.818;6.516;2023-05-10T02:07:03;11.52;;;9.10;;
60722;SDS011;46574;52.818;6.516;2023-05-10T02:09:30;12.23;;;9.00;;
60722;SDS011;46574;52.818;6.516;2023-05-10T02:11:58;11.73;;;9.02;;
60722;SDS011;46574;52.818;6.516;2023-05-10T02:14:27;13.13;;;10.10;;
60722;SDS011;46574;52.818;6.516;2023-05-10T02:16:57;13.10;;;9.88;;
60722;SDS011;46574;52.818;6.516;2023-05-10T02:19:24;10.48;;;8.90;;
60722;SDS011;46574;52.818;6.516;2023-05-10T02:21:52;11.52;;;8.90;;
60722;SDS011;46574;52.818;6.516;2023-05-10T02:24:20;10.88;;;8.77;;
60722;SDS011;46574;52.818;6.516;2023-05-10T02:26:47;9.68;;;8.02;;
60722;SDS011;46574;52.818;6.516;2023-05-10T02:29:16;10.38;;;8.73;;
60722;SDS011;46574;52.818;6.516;2023-05-10T02:31:43;11.38;;;9.32;;
60722;SDS011;46574;52.818;6.516;2023-05-10T02:34:09;8.52;;;7.63;;
60722;SDS011;46574;52.818;6.516;2023-05-10T02:36:36;11.55;;;8.98;;
60722;SDS011;46574;52.818;6.516;2023-05-10T02:39:03;13.23;;;9.60;;
60722;SDS011;46574;52.818;6.516;2023-05-10T02:41:30;11.15;;;7.93;;
60722;SDS011;46574;52.818;6.516;2023-05-10T02:43:59;10.07;;;8.53;;
60722;SDS011;46574;52.818;6.516;2023-05-10T02:46:26;10.48;;;8.23;;
60722;SDS011;46574;52.818;6.516;2023-05-10T02:48:51;14.15;;;9.90;;
60722;SDS011;46574;52.818;6.516;2023-05-10T02:51:18;9.32;;;8.02;;
60722;SDS011;46574;52.818;6.516;2023-05-10T02:53:47;9.82;;;8.18;;
60722;SDS011;46574;52.818;6.516;2023-05-10T02:56:17;13.15;;;9.20;;
60722;SDS011;46574;52.818;6.516;2023-05-10T02:58:50;9.35;;;7.53;;
60722;SDS011;46574;52.818;6.516;2023-05-10T03:01:15;8.35;;;7.00;;
60722;SDS011;46574;52.818;6.516;2023-05-10T03:03:41;11.93;;;8.73;;
60722;SDS011;46574;52.818;6.516;2023-05-10T03:06:07;9.60;;;7.90;;
60722;SDS011;46574;52.818;6.516;2023-05-10T03:08:32;9.68;;;8.27;;
60722;SDS011;46574;52.818;6.516;2023-05-10T03:11:07;11.80;;;8.50;;
60722;SDS011;46574;52.818;6.516;2023-05-10T03:13:36;8.52;;;7.63;;
60722;SDS011;46574;52.818;6.516;2023-05-10T03:16:15;10.57;;;8.38;;
60722;SDS011;46574;52.818;6.516;2023-05-10T03:21:22;9.27;;;7.82;;
60722;SDS011;46574;52.818;6.516;2023-05-10T03:23:51;9.48;;;8.18;;
60722;SDS011;46574;52.818;6.516;2023-05-10T03:26:30;8.13;;;7.30;;
60722;SDS011;46574;52.818;6.516;2023-05-10T03:28:57;8.60;;;7.72;;
60722;SDS011;46574;52.818;6.516;2023-05-10T03:31:24;10.55;;;8.20;;
60722;SDS011;46574;52.818;6.516;2023-05-10T03:33:51;8.60;;;7.70;;
60722;SDS011;46574;52.818;6.516;2023-05-10T03:36:17;9.20;;;7.78;;
60722;SDS011;46574;52.818;6.516;2023-05-10T03:38:43;8.93;;;7.93;;
60722;SDS011;46574;52.818;6.516;2023-05-10T03:41:09;12.05;;;8.90;;
60722;SDS011;46574;52.818;6.516;2023-05-10T03:43:35;8.35;;;7.50;;
60722;SDS011;46574;52.818;6.516;2023-05-10T03:46:04;9.70;;;8.45;;
60722;SDS011;46574;52.818;6.516;2023-05-10T03:48:31;10.27;;;8.15;;
60722;SDS011;46574;52.818;6.516;2023-05-10T03:50:57;12.23;;;9.73;;
60722;SDS011;46574;52.818;6.516;2023-05-10T03:53:23;10.13;;;9.05;;
60722;SDS011;46574;52.818;6.516;2023-05-10T03:55:48;11.57;;;9.27;;
60722;SDS011;46574;52.818;6.516;2023-05-10T03:58:14;9.40;;;8.25;;
60722;SDS011;46574;52.818;6.516;2023-05-10T04:00:40;9.27;;;7.82;;
60722;SDS011;46574;52.818;6.516;2023-05-10T04:03:09;11.85;;;9.20;;
60722;SDS011;46574;52.818;6.516;2023-05-10T04:05:35;11.68;;;9.60;;
60722;SDS011;46574;52.818;6.516;2023-05-10T04:08:01;11.93;;;8.77;;
60722;SDS011;46574;52.818;6.516;2023-05-10T04:10:27;10.07;;;7.95;;
60722;SDS011;46574;52.818;6.516;2023-05-10T04:12:53;10.68;;;8.23;;
60722;SDS011;46574;52.818;6.516;2023-05-10T04:15:18;9.15;;;8.13;;
60722;SDS011;46574;52.818;6.516;2023-05-10T04:17:44;10.25;;;8.18;;
60722;SDS011;46574;52.818;6.516;2023-05-10T04:20:10;8.07;;;7.25;;
60722;SDS011;46574;52.818;6.516;2023-05-10T04:22:36;11.90;;;8.60;;
60722;SDS011;46574;52.818;6.516;2023-05-10T04:25:02;9.50;;;7.32;;
60722;SDS011;46574;52.818;6.516;2023-05-10T04:27:27;10.70;;;7.88;;
60722;SDS011;46574;52.818;6.516;2023-05-10T04:29:53;9.95;;;7.82;;
60722;SDS011;46574;52.818;6.516;2023-05-10T04:32:19;10.05;;;7.57;;
60722;SDS011;46574;52.818;6.516;2023-05-10T04:34:45;10.82;;;8.85;;
60722;SDS011;46574;52.818;6.516;2023-05-10T04:37:11;12.93;;;9.55;;
60722;SDS011;46574;52.818;6.516;2023-05-10T04:39:37;10.07;;;8.15;;
60722;SDS011;46574;52.818;6.516;2023-05-10T04:42:02;14.70;;;10.48;;
60722;SDS011;46574;52.818;6.516;2023-05-10T04:44:30;15.57;;;10.77;;
60722;SDS011;46574;52.818;6.516;2023-05-10T04:46:59;16.95;;;10.65;;
60722;SDS011;46574;52.818;6.516;2023-05-10T04:49:25;12.27;;;10.88;;
60722;SDS011;46574;52.818;6.516;2023-05-10T04:51:50;13.15;;;10.38;;
60722;SDS011;46574;52.818;6.516;2023-05-10T04:54:16;12.32;;;9.90;;
60722;SDS011;46574;52.818;6.516;2023-05-10T04:56:42;14.43;;;10.52;;
60722;SDS011;46574;52.818;6.516;2023-05-10T04:59:07;11.57;;;9.32;;
60722;SDS011;46574;52.818;6.516;2023-05-10T05:01:33;12.88;;;9.05;;
60722;SDS011;46574;52.818;6.516;2023-05-10T05:03:58;8.38;;;7.25;;
60722;SDS011;46574;52.818;6.516;2023-05-10T05:06:25;11.57;;;8.07;;
60722;SDS011;46574;52.818;6.516;2023-05-10T05:08:52;10.93;;;8.38;;
60722;SDS011;46574;52.818;6.516;2023-05-10T05:11:17;10.75;;;7.90;;
60722;SDS011;46574;52.818;6.516;2023-05-10T05:13:43;12.98;;;8.70;;
60722;SDS011;46574;52.818;6.516;2023-05-10T05:16:09;12.15;;;8.88;;
60722;SDS011;46574;52.818;6.516;2023-05-10T05:18:35;12.05;;;9.73;;
60722;SDS011;46574;52.818;6.516;2023-05-10T05:21:01;12.40;;;9.73;;
60722;SDS011;46574;52.818;6.516;2023-05-10T05:23:27;10.63;;;8.25;;
60722;SDS011;46574;52.818;6.516;2023-05-10T05:25:52;13.30;;;9.70;;
60722;SDS011;46574;52.818;6.516;2023-05-10T05:28:19;11.57;;;9.07;;
60722;SDS011;46574;52.818;6.516;2023-05-10T05:30:45;16.02;;;11.18;;
60722;SDS011;46574;52.818;6.516;2023-05-10T05:33:12;17.15;;;11.27;;
60722;SDS011;46574;52.818;6.516;2023-05-10T05:35:39;14.77;;;11.23;;
60722;SDS011;46574;52.818;6.516;2023-05-10T05:38:04;17.58;;;11.30;;
60722;SDS011;46574;52.818;6.516;2023-05-10T05:40:31;16.55;;;11.18;;
60722;SDS011;46574;52.818;6.516;2023-05-10T05:42:56;15.23;;;11.07;;
60722;SDS011;46574;52.818;6.516;2023-05-10T05:45:22;15.75;;;10.48;;
60722;SDS011;46574;52.818;6.516;2023-05-10T05:47:47;18.05;;;11.35;;
60722;SDS011;46574;52.818;6.516;2023-05-10T05:50:13;16.50;;;10.95;;
60722;SDS011;46574;52.818;6.516;2023-05-10T05:52:39;16.80;;;10.85;;
60722;SDS011;46574;52.818;6.516;2023-05-10T05:55:04;15.32;;;9.95;;
60722;SDS011;46574;52.818;6.516;2023-05-10T05:57:30;15.65;;;10.82;;
60722;SDS011;46574;52.818;6.516;2023-05-10T05:59:56;14.43;;;10.43;;
60722;SDS011;46574;52.818;6.516;2023-05-10T06:02:22;14.65;;;9.90;;
60722;SDS011;46574;52.818;6.516;2023-05-10T06:04:47;15.35;;;9.38;;
60722;SDS011;46574;52.818;6.516;2023-05-10T06:07:13;15.38;;;9.95;;
60722;SDS011;46574;52.818;6.516;2023-05-10T06:09:38;13.52;;;9.15;;
60722;SDS011;46574;52.818;6.516;2023-05-10T06:12:04;12.40;;;8.32;;
60722;SDS011;46574;52.818;6.516;2023-05-10T06:14:30;14.35;;;8.70;;
60722;SDS011;46574;52.818;6.516;2023-05-10T06:16:55;14.45;;;8.55;;
60722;SDS011;46574;52.818;6.516;2023-05-10T06:19:21;13.15;;;8.68;;
60722;SDS011;46574;52.818;6.516;2023-05-10T06:21:47;12.30;;;8.05;;
60722;SDS011;46574;52.818;6.516;2023-05-10T06:24:12;14.75;;;8.18;;
60722;SDS011;46574;52.818;6.516;2023-05-10T06:26:38;12.85;;;8.80;;
60722;SDS011;46574;52.818;6.516;2023-05-10T06:29:03;10.75;;;7.78;;
60722;SDS011;46574;52.818;6.516;2023-05-10T06:31:29;9.73;;;6.95;;
60722;SDS011;46574;52.818;6.516;2023-05-10T06:33:55;9.32;;;6.80;;
60722;SDS011;46574;52.818;6.516;2023-05-10T06:36:20;10.13;;;6.30;;
60722;SDS011;46574;52.818;6.516;2023-05-10T06:38:47;8.30;;;6.55;;
60722;SDS011;46574;52.818;6.516;2023-05-10T06:41:12;5.97;;;5.15;;
60722;SDS011;46574;52.818;6.516;2023-05-10T06:43:38;6.70;;;5.57;;
60722;SDS011;46574;52.818;6.516;2023-05-10T06:46:06;6.80;;;4.93;;
60722;SDS011;46574;52.818;6.516;2023-05-10T06:48:32;8.02;;;5.38;;
60722;SDS011;46574;52.818;6.516;2023-05-10T06:50:58;7.07;;;5.18;;
60722;SDS011;46574;52.818;6.516;2023-05-10T06:53:23;7.85;;;5.32;;
60722;SDS011;46574;52.818;6.516;2023-05-10T06:55:49;7.07;;;5.28;;
60722;SDS011;46574;52.818;6.516;2023-05-10T06:58:15;7.47;;;5.53;;
60722;SDS011;46574;52.818;6.516;2023-05-10T07:00:40;8.15;;;5.75;;
60722;SDS011;46574;52.818;6.516;2023-05-10T07:03:09;8.50;;;5.80;;
60722;SDS011;46574;52.818;6.516;2023-05-10T07:05:35;6.57;;;5.63;;
60722;SDS011;46574;52.818;6.516;2023-05-10T07:08:01;6.45;;;5.22;;
60722;SDS011;46574;52.818;6.516;2023-05-10T07:10:27;6.90;;;5.53;;
60722;SDS011;46574;52.818;6.516;2023-05-10T07:12:52;8.35;;;5.65;;
60722;SDS011;46574;52.818;6.516;2023-05-10T07:15:18;7.40;;;6.20;;
60722;SDS011;46574;52.818;6.516;2023-05-10T07:17:44;7.97;;;6.65;;
60722;SDS011;46574;52.818;6.516;2023-05-10T07:20:10;7.82;;;6.55;;
60722;SDS011;46574;52.818;6.516;2023-05-10T07:22:36;8.63;;;6.32;;
60722;SDS011;46574;52.818;6.516;2023-05-10T07:25:02;8.70;;;6.45;;
60722;SDS011;46574;52.818;6.516;2023-05-10T07:27:28;7.80;;;6.13;;
60722;SDS011;46574;52.818;6.516;2023-05-10T07:29:53;9.02;;;6.70;;
60722;SDS011;46574;52.818;6.516;2023-05-10T07:32:19;7.55;;;5.82;;
60722;SDS011;46574;52.818;6.516;2023-05-10T07:34:46;7.55;;;6.00;;
60722;SDS011;46574;52.818;6.516;2023-05-10T07:37:12;8.02;;;6.15;;
60722;SDS011;46574;52.818;6.516;2023-05-10T07:39:37;8.10;;;6.10;;
60722;SDS011;46574;52.818;6.516;2023-05-10T07:42:03;7.85;;;5.88;;
60722;SDS011;46574;52.818;6.516;2023-05-10T07:44:28;7.78;;;5.93;;
60722;SDS011;46574;52.818;6.516;2023-05-10T07:46:54;6.28;;;5.22;;
60722;SDS011;46574;52.818;6.516;2023-05-10T07:49:20;8.43;;;5.85;;
60722;SDS011;46574;52.818;6.516;2023-05-10T07:51:46;6.85;;;5.65;;
60722;SDS011;46574;52.818;6.516;2023-05-10T07:54:12;6.70;;;5.47;;
60722;SDS011;46574;52.818;6.516;2023-05-10T07:56:39;7.55;;;5.70;;
60722;SDS011;46574;52.818;6.516;2023-05-10T07:59:10;7.80;;;5.47;;
60722;SDS011;46574;52.818;6.516;2023-05-10T08:01:40;6.82;;;5.22;;
60722;SDS011;46574;52.818;6.516;2023-05-10T08:04:06;8.80;;;5.20;;
60722;SDS011;46574;52.818;6.516;2023-05-10T08:06:32;5.90;;;5.20;;
60722;SDS011;46574;52.818;6.516;2023-05-10T08:08:58;8.20;;;5.75;;
60722;SDS011;46574;52.818;6.516;2023-05-10T08:11:24;6.80;;;5.13;;
60722;SDS011;46574;52.818;6.516;2023-05-10T08:13:50;7.82;;;4.97;;
60722;SDS011;46574;52.818;6.516;2023-05-10T08:16:16;6.22;;;4.28;;
60722;SDS011;46574;52.818;6.516;2023-05-10T08:18:43;6.90;;;4.85;;
60722;SDS011;46574;52.818;6.516;2023-05-10T08:21:13;7.57;;;4.60;;
60722;SDS011;46574;52.818;6.516;2023-05-10T08:23:39;7.68;;;4.55;;
60722;SDS011;46574;52.818;6.516;2023-05-10T08:26:05;8.98;;;5.25;;
60722;SDS011;46574;52.818;6.516;2023-05-10T08:28:31;7.95;;;4.72;;
60722;SDS011;46574;52.818;6.516;2023-05-10T08:31:00;6.88;;;4.53;;
60722;SDS011;46574;52.818;6.516;2023-05-10T08:33:25;7.13;;;5.90;;
60722;SDS011;46574;52.818;6.516;2023-05-10T08:35:51;7.00;;;4.90;;
60722;SDS011;46574;52.818;6.516;2023-05-10T08:38:17;7.28;;;5.00;;
60722;SDS011;46574;52.818;6.516;2023-05-10T08:40:43;7.63;;;5.22;;
60722;SDS011;46574;52.818;6.516;2023-05-10T08:43:11;6.13;;;4.90;;
60722;SDS011;46574;52.818;6.516;2023-05-10T08:45:41;6.32;;;4.70;;
60722;SDS011;46574;52.818;6.516;2023-05-10T08:48:10;6.32;;;4.80;;
60722;SDS011;46574;52.818;6.516;2023-05-10T08:50:37;5.63;;;5.00;;
60722;SDS011;46574;52.818;6.516;2023-05-10T08:53:05;6.45;;;4.97;;
60722;SDS011;46574;52.818;6.516;2023-05-10T08:55:34;5.80;;;5.15;;
60722;SDS011;46574;52.818;6.516;2023-05-10T08:58:02;7.72;;;5.60;;
60722;SDS011;46574;52.818;6.516;2023-05-10T09:00:28;7.03;;;6.07;;
60722;SDS011;46574;52.818;6.516;2023-05-10T09:02:54;7.93;;;6.13;;
60722;SDS011;46574;52.818;6.516;2023-05-10T09:05:20;8.20;;;6.32;;
60722;SDS011;46574;52.818;6.516;2023-05-10T09:07:46;8.18;;;6.55;;
60722;SDS011;46574;52.818;6.516;2023-05-10T09:10:12;8.85;;;7.35;;
60722;SDS011;46574;52.818;6.516;2023-05-10T09:12:39;10.15;;;8.00;;
60722;SDS011;46574;52.818;6.516;2023-05-10T09:15:06;11.45;;;8.02;;
60722;SDS011;46574;52.818;6.516;2023-05-10T09:17:33;9.77;;;8.27;;
60722;SDS011;46574;52.818;6.516;2023-05-10T09:20:02;10.25;;;8.10;;
60722;SDS011;46574;52.818;6.516;2023-05-10T09:22:31;11.20;;;9.00;;
60722;SDS011;46574;52.818;6.516;2023-05-10T09:25:10;13.38;;;9.63;;
60722;SDS011;46574;52.818;6.516;2023-05-10T09:27:40;10.88;;;9.32;;
60722;SDS011;46574;52.818;6.516;2023-05-10T09:30:09;10.55;;;8.80;;
60722;SDS011;46574;52.818;6.516;2023-05-10T09:32:40;10.43;;;9.05;;
60722;SDS011;46574;52.818;6.516;2023-05-10T09:35:07;12.45;;;8.30;;
60722;SDS011;46574;52.818;6.516;2023-05-10T09:37:34;11.98;;;8.38;;
60722;SDS011;46574;52.818;6.516;2023-05-10T09:39:59;9.57;;;8.43;;
60722;SDS011;46574;52.818;6.516;2023-05-10T09:42:25;10.75;;;8.32;;
60722;SDS011;46574;52.818;6.516;2023-05-10T09:44:51;10.20;;;8.35;;
60722;SDS011;46574;52.818;6.516;2023-05-10T09:47:17;11.25;;;8.60;;
60722;SDS011;46574;52.818;6.516;2023-05-10T09:49:43;12.27;;;9.45;;
60722;SDS011;46574;52.818;6.516;2023-05-10T09:52:13;10.15;;;9.05;;
60722;SDS011;46574;52.818;6.516;2023-05-10T09:54:42;11.40;;;8.43;;
60722;SDS011;46574;52.818;6.516;2023-05-10T09:57:21;11.68;;;9.30;;
60722;SDS011;46574;52.818;6.516;2023-05-10T09:59:47;11.77;;;8.52;;
60722;SDS011;46574;52.818;6.516;2023-05-10T10:02:14;9.20;;;8.30;;
60722;SDS011;46574;52.818;6.516;2023-05-10T10:04:40;9.18;;;8.27;;
60722;SDS011;46574;52.818;6.516;2023-05-10T10:07:06;11.15;;;9.15;;
60722;SDS011;46574;52.818;6.516;2023-05-10T10:09:33;9.70;;;8.57;;
60722;SDS011;46574;52.818;6.516;2023-05-10T10:12:00;11.82;;;8.80;;
60722;SDS011;46574;52.818;6.516;2023-05-10T10:14:27;10.15;;;7.97;;
60722;SDS011;46574;52.818;6.516;2023-05-10T10:16:53;8.90;;;7.00;;
60722;SDS011;46574;52.818;6.516;2023-05-10T10:19:19;11.02;;;6.97;;
60722;SDS011;46574;52.818;6.516;2023-05-10T10:21:46;10.80;;;7.25;;
60722;SDS011;46574;52.818;6.516;2023-05-10T10:24:12;8.10;;;7.28;;
60722;SDS011;46574;52.818;6.516;2023-05-10T10:26:38;8.15;;;7.35;;
60722;SDS011;46574;52.818;6.516;2023-05-10T10:32:29;9.05;;;7.82;;
60722;SDS011;46574;52.818;6.516;2023-05-10T10:34:53;9.45;;;7.15;;
60722;SDS011;46574;52.818;6.516;2023-05-10T10:37:20;6.90;;;6.20;;
60722;SDS011;46574;52.818;6.516;2023-05-10T10:39:47;7.80;;;7.00;;
60722;SDS011;46574;52.818;6.516;2023-05-10T10:42:14;8.52;;;7.05;;
60722;SDS011;46574;52.818;6.516;2023-05-10T10:45:11;8.30;;;6.88;;
60722;SDS011;46574;52.818;6.516;2023-05-10T10:47:38;6.45;;;5.85;;
60722;SDS011;46574;52.818;6.516;2023-05-10T10:50:04;7.20;;;6.00;;
60722;SDS011;46574;52.818;6.516;2023-05-10T10:55:04;6.82;;;5.30;;
60722;SDS011;46574;52.818;6.516;2023-05-10T10:57:42;7.75;;;6.18;;
60722;SDS011;46574;52.818;6.516;2023-05-10T11:02:53;5.90;;;5.30;;
60722;SDS011;46574;52.818;6.516;2023-05-10T11:10:35;7.63;;;6.05;;
60722;SDS011;46574;52.818;6.516;2023-05-10T11:15:32;5.85;;;5.35;;
60722;SDS011;46574;52.818;6.516;2023-05-10T11:17:59;6.95;;;5.35;;
60722;SDS011;46574;52.818;6.516;2023-05-10T11:20:41;5.95;;;5.35;;
60722;SDS011;46574;52.818;6.516;2023-05-10T11:23:13;7.43;;;5.97;;
60722;SDS011;46574;52.818;6.516;2023-05-10T11:25:43;6.95;;;5.95;;
60722;SDS011;46574;52.818;6.516;2023-05-10T11:28:09;8.00;;;6.63;;
60722;SDS011;46574;52.818;6.516;2023-05-10T11:30:38;8.98;;;6.68;;
60722;SDS011;46574;52.818;6.516;2023-05-10T11:33:05;7.90;;;6.50;;
60722;SDS011;46574;52.818;6.516;2023-05-10T11:35:36;6.93;;;6.00;;
60722;SDS011;46574;52.818;6.516;2023-05-10T11:38:07;8.57;;;7.13;;
60722;SDS011;46574;52.818;6.516;2023-05-10T11:40:34;8.90;;;6.68;;
60722;SDS011;46574;52.818;6.516;2023-05-10T11:43:00;8.13;;;6.95;;
60722;SDS011;46574;52.818;6.516;2023-05-10T11:45:26;9.52;;;7.20;;
60722;SDS011;46574;52.818;6.516;2023-05-10T11:47:54;10.05;;;7.55;;
60722;SDS011;46574;52.818;6.516;2023-05-10T11:50:20;11.18;;;8.50;;
60722;SDS011;46574;52.818;6.516;2023-05-10T11:52:50;13.27;;;9.27;;
60722;SDS011;46574;52.818;6.516;2023-05-10T11:55:19;11.52;;;8.48;;
60722;SDS011;46574;52.818;6.516;2023-05-10T11:57:45;12.10;;;8.38;;
60722;SDS011;46574;52.818;6.516;2023-05-10T12:00:11;9.93;;;8.52;;
60722;SDS011;46574;52.818;6.516;2023-05-10T12:02:38;11.85;;;8.77;;
60722;SDS011;46574;52.818;6.516;2023-05-10T12:05:04;9.50;;;8.48;;
60722;SDS011;46574;52.818;6.516;2023-05-10T12:07:31;13.18;;;9.85;;
60722;SDS011;46574;52.818;6.516;2023-05-10T12:10:07;14.65;;;9.98;;
60722;SDS011;46574;52.818;6.516;2023-05-10T12:12:43;11.43;;;9.52;;
60722;SDS011;46574;52.818;6.516;2023-05-10T12:15:11;13.55;;;10.27;;
60722;SDS011;46574;52.818;6.516;2023-05-10T12:17:47;11.57;;;9.93;;
60722;SDS011;46574;52.818;6.516;2023-05-10T12:20:14;11.60;;;9.52;;
60722;SDS011;46574;52.818;6.516;2023-05-10T12:22:43;12.50;;;8.95;;
60722;SDS011;46574;52.818;6.516;2023-05-10T12:25:10;10.60;;;8.27;;
60722;SDS011;46574;52.818;6.516;2023-05-10T12:27:36;11.50;;;9.30;;
60722;SDS011;46574;52.818;6.516;2023-05-10T12:30:02;11.93;;;9.30;;
60722;SDS011;46574;52.818;6.516;2023-05-10T12:32:37;16.30;;;9.65;;
60722;SDS011;46574;52.818;6.516;2023-05-10T12:35:09;11.82;;;9.02;;
60722;SDS011;46574;52.818;6.516;2023-05-10T12:37:35;10.73;;;8.70;;
60722;SDS011;46574;52.818;6.516;2023-05-10T12:40:07;9.32;;;7.88;;
60722;SDS011;46574;52.818;6.516;2023-05-10T12:42:34;9.98;;;8.00;;
60722;SDS011;46574;52.818;6.516;2023-05-10T12:45:01;9.70;;;7.80;;
60722;SDS011;46574;52.818;6.516;2023-05-10T12:47:27;11.75;;;8.65;;
60722;SDS011;46574;52.818;6.516;2023-05-10T12:49:53;10.45;;;8.48;;
60722;SDS011;46574;52.818;6.516;2023-05-10T12:52:19;11.68;;;8.85;;
60722;SDS011;46574;52.818;6.516;2023-05-10T12:54:45;11.98;;;8.85;;
60722;SDS011;46574;52.818;6.516;2023-05-10T12:57:11;11.68;;;8.82;;
60722;SDS011;46574;52.818;6.516;2023-05-10T12:59:37;10.27;;;8.38;;
60722;SDS011;46574;52.818;6.516;2023-05-10T13:02:03;12.23;;;9.57;;
60722;SDS011;46574;52.818;6.516;2023-05-10T13:04:29;11.40;;;8.68;;
60722;SDS011;46574;52.818;6.516;2023-05-10T13:06:55;11.93;;;8.52;;
60722;SDS011;46574;52.818;6.516;2023-05-10T13:09:23;11.80;;;8.60;;
60722;SDS011;46574;52.818;6.516;2023-05-10T13:11:50;11.65;;;8.70;;
60722;SDS011;46574;52.818;6.516;2023-05-10T13:14:18;10.45;;;8.15;;
60722;SDS011;46574;52.818;6.516;2023-05-10T13:16:45;9.68;;;7.63;;
60722;SDS011;46574;52.818;6.516;2023-05-10T13:19:12;11.52;;;8.55;;
60722;SDS011;46574;52.818;6.516;2023-05-10T13:21:38;11.50;;;8.80;;
60722;SDS011;46574;52.818;6.516;2023-05-10T13:24:05;11.50;;;9.00;;
60722;SDS011;46574;52.818;6.516;2023-05-10T13:26:32;10.98;;;8.73;;
60722;SDS011;46574;52.818;6.516;2023-05-10T13:28:57;12.65;;;8.57;;
60722;SDS011;46574;52.818;6.516;2023-05-10T13:31:23;11.57;;;9.30;;
60722;SDS011;46574;52.818;6.516;2023-05-10T13:33:49;11.57;;;9.25;;
60722;SDS011;46574;52.818;6.516;2023-05-10T13:36:14;14.90;;;10.20;;
60722;SDS011;46574;52.818;6.516;2023-05-10T13:38:40;11.48;;;8.35;;
60722;SDS011;46574;52.818;6.516;2023-05-10T13:41:05;11.15;;;8.63;;
60722;SDS011;46574;52.818;6.516;2023-05-10T13:43:31;12.38;;;9.57;;
60722;SDS011;46574;52.818;6.516;2023-05-10T13:45:57;11.50;;;9.20;;
60722;SDS011;46574;52.818;6.516;2023-05-10T13:48:23;9.90;;;8.13;;
60722;SDS011;46574;52.818;6.516;2023-05-10T13:50:48;10.82;;;8.55;;
60722;SDS011;46574;52.818;6.516;2023-05-10T13:53:14;13.27;;;8.98;;
60722;SDS011;46574;52.818;6.516;2023-05-10T13:55:41;12.52;;;9.30;;
60722;SDS011;46574;52.818;6.516;2023-05-10T13:58:06;11.23;;;7.55;;
60722;SDS011;46574;52.818;6.516;2023-05-10T14:00:32;11.10;;;8.45;;
60722;SDS011;46574;52.818;6.516;2023-05-10T14:02:58;9.90;;;8.18;;
60722;SDS011;46574;52.818;6.516;2023-05-10T14:05:23;10.00;;;8.05;;
60722;SDS011;46574;52.818;6.516;2023-05-10T14:07:52;10.00;;;7.90;;
60722;SDS011;46574;52.818;6.516;2023-05-10T14:10:18;11.43;;;8.75;;
60722;SDS011;46574;52.818;6.516;2023-05-10T14:12:44;11.35;;;9.00;;
60722;SDS011;46574;52.818;6.516;2023-05-10T14:15:10;12.75;;;9.93;;
60722;SDS011;46574;52.818;6.516;2023-05-10T14:17:36;11.50;;;8.40;;
60722;SDS011;46574;52.818;6.516;2023-05-10T14:20:02;10.93;;;8.93;;
60722;SDS011;46574;52.818;6.516;2023-05-10T14:22:29;12.35;;;8.48;;
60722;SDS011;46574;52.818;6.516;2023-05-10T14:24:54;9.93;;;6.95;;
60722;SDS011;46574;52.818;6.516;2023-05-10T14:27:20;10.40;;;7.35;;
60722;SDS011;46574;52.818;6.516;2023-05-10T14:29:47;8.77;;;6.78;;
60722;SDS011;46574;52.818;6.516;2023-05-10T14:32:12;9.95;;;7.35;;
60722;SDS011;46574;52.818;6.516;2023-05-10T14:34:38;8.55;;;7.05;;
60722;SDS011;46574;52.818;6.516;2023-05-10T14:37:04;10.45;;;7.65;;
60722;SDS011;46574;52.818;6.516;2023-05-10T14:39:29;9.52;;;7.90;;
60722;SDS011;46574;52.818;6.516;2023-05-10T14:41:55;9.27;;;7.82;;
60722;SDS011;46574;52.818;6.516;2023-05-10T14:44:21;8.25;;;7.38;;
60722;SDS011;46574;52.818;6.516;2023-05-10T14:46:47;9.02;;;7.90;;
60722;SDS011;46574;52.818;6.516;2023-05-10T14:49:14;11.38;;;8.63;;
60722;SDS011;46574;52.818;6.516;2023-05-10T14:51:40;9.88;;;7.57;;
60722;SDS011;46574;52.818;6.516;2023-05-10T14:54:06;10.60;;;8.50;;
60722;SDS011;46574;52.818;6.516;2023-05-10T14:56:32;12.25;;;9.40;;
60722;SDS011;46574;52.818;6.516;2023-05-10T14:58:57;10.73;;;8.75;;
60722;SDS011;46574;52.818;6.516;2023-05-10T15:01:24;8.63;;;7.30;;
60722;SDS011;46574;52.818;6.516;2023-05-10T15:03:50;10.98;;;8.95;;
60722;SDS011;46574;52.818;6.516;2023-05-10T15:06:15;10.90;;;8.07;;
60722;SDS011;46574;52.818;6.516;2023-05-10T15:08:42;10.00;;;8.23;;
60722;SDS011;46574;52.818;6.516;2023-05-10T15:11:08;12.40;;;9.38;;
60722;SDS011;46574;52.818;6.516;2023-05-10T15:13:33;12.55;;;8.93;;
60722;SDS011;46574;52.818;6.516;2023-05-10T15:15:59;10.45;;;8.77;;
60722;SDS011;46574;52.818;6.516;2023-05-10T15:18:25;10.65;;;8.85;;